Time,TemperatureF,DewpointF,PressureIn,WindDirection,WindDirectionDegrees,WindSpeedMPH,WindSpeedGustMPH,Humidity,HourlyPrecipIn,Conditions,Clouds,dailyrainin,SolarRadiationWatts/m^2,SoftwareType,DateUTC
2013-09-25 00:01:00,55.3,44.5,29.91,North,360,0.0,0.0,67,0.00,,,0.00,0,Wunderground v.1.15,2013-09-25 04:01:00,
2013-09-25 00:04:00,55.3,44.5,29.91,North,360,0.0,0.0,67,0.00,,,0.00,0,Wunderground v.1.15,2013-09-25 04:04:00,
2013-09-25 00:05:00,55.1,44.3,29.91,North,360,0.0,1.0,67,0.00,,,0.00,0,Wunderground v.1.15,2013-09-25 04:05:00,
2013-09-25 00:07:00,55.1,44.3,29.91,North,360,0.0,1.0,67,0.00,,,0.00,0,Wunderground v.1.15,2013-09-25 04:07:00,
2013-09-25 00:09:00,55.1,44.3,29.91,North,360,0.0,0.0,67,0.00,,,0.00,0,Wunderground v.1.15,2013-09-25 04:09:00,
2013-09-25 00:15:00,55.0,44.2,29.91,North,360,1.0,1.0,67,0.00,,,0.00,0,Wunderground v.1.15,2013-09-25 04:15:00,
2013-09-25 00:21:00,55.0,44.2,29.91,North,360,1.0,1.0,67,0.00,,,0.00,0,Wunderground v.1.15,2013-09-25 04:21:00,
2013-09-25 00:27:00,55.1,44.3,29.91,North,360,1.0,1.0,67,0.00,,,0.00,0,Wunderground v.1.15,2013-09-25 04:27:00,
2013-09-25 00:35:00,55.1,43.9,29.91,North,360,1.0,1.0,66,0.00,,,0.00,0,Wunderground v.1.15,2013-09-25 04:35:00,
2013-09-25 00:41:00,55.1,44.3,29.91,North,360,0.0,0.0,67,0.00,,,0.00,0,Wunderground v.1.15,2013-09-25 04:41:00,
2013-09-25 00:47:00,55.0,44.6,29.92,North,360,0.0,1.0,68,0.00,,,0.00,0,Wunderground v.1.15,2013-09-25 04:47:00,
2013-09-25 00:54:00,54.5,44.5,29.92,North,360,0.0,0.0,69,0.00,,,0.00,0,Wunderground v.1.15,2013-09-25 04:54:00,
2013-09-25 00:59:00,54.2,44.6,29.92,North,360,0.0,0.0,70,0.00,,,0.00,0,Wunderground v.1.15,2013-09-25 04:59:00,
2013-09-25 01:05:00,53.9,44.3,29.92,North,360,0.0,0.0,70,0.00,,,0.00,0,Wunderground v.1.15,2013-09-25 05:05:00,
2013-09-25 01:11:00,53.6,44.4,29.92,North,360,0.0,0.0,71,0.00,,,0.00,0,Wunderground v.1.15,2013-09-25 05:11:00,
2013-09-25 01:17:00,53.5,44.7,29.92,North,360,0.0,0.0,72,0.00,,,0.00,0,Wunderground v.1.15,2013-09-25 05:17:00,
2013-09-25 01:25:00,53.2,44.8,29.92,North,360,0.0,1.0,73,0.00,,,0.00,0,Wunderground v.1.15,2013-09-25 05:25:00,
2013-09-25 01:31:00,52.9,44.5,29.92,North,360,1.0,4.0,73,0.00,,,0.00,0,Wunderground v.1.15,2013-09-25 05:31:00,
2013-09-25 01:37:00,52.6,44.5,29.92,North,360,2.0,4.0,74,0.00,,,0.00,0,Wunderground v.1.15,2013-09-25 05:37:00,
2013-09-25 01:45:00,52.5,44.4,29.92,North,360,2.0,3.0,74,0.00,,,0.00,0,Wunderground v.1.15,2013-09-25 05:45:00,
2013-09-25 01:51:00,52.3,44.6,29.92,North,360,0.0,0.0,75,0.00,,,0.00,0,Wunderground v.1.15,2013-09-25 05:51:00,
2013-09-25 01:57:00,52.3,44.6,29.92,North,360,0.0,0.0,75,0.00,,,0.00,0,Wunderground v.1.15,2013-09-25 05:57:00,
2013-09-25 02:05:00,52.0,44.3,29.92,North,360,0.0,0.0,75,0.00,,,0.00,0,Wunderground v.1.15,2013-09-25 06:05:00,
2013-09-25 02:11:00,51.9,44.2,29.92,North,360,0.0,0.0,75,0.00,,,0.00,0,Wunderground v.1.15,2013-09-25 06:11:00,
2013-09-25 02:17:00,51.7,44.4,29.92,North,360,0.0,0.0,76,0.00,,,0.00,0,Wunderground v.1.15,2013-09-25 06:17:00,
2013-09-25 02:26:00,51.4,44.1,29.92,North,360,1.0,1.0,76,0.00,,,0.00,0,Wunderground v.1.15,2013-09-25 06:26:00,
2013-09-25 02:32:00,51.3,44.3,29.92,North,360,1.0,1.0,77,0.00,,,0.00,0,Wunderground v.1.15,2013-09-25 06:32:00,
2013-09-25 02:38:00,51.1,44.1,29.92,North,360,1.0,2.0,77,0.00,,,0.00,0,Wunderground v.1.15,2013-09-25 06:38:00,
2013-09-25 02:46:00,51.0,44.0,29.92,North,360,1.0,1.0,77,0.00,,,0.00,0,Wunderground v.1.15,2013-09-25 06:46:00,
2013-09-25 02:53:00,50.8,44.2,29.92,North,360,0.0,0.0,78,0.00,,,0.00,0,Wunderground v.1.15,2013-09-25 06:53:00,
2013-09-25 03:00:00,50.7,44.1,29.92,North,360,0.0,0.0,78,0.00,,,0.00,0,Wunderground v.1.15,2013-09-25 07:00:00,
2013-09-25 03:12:00,50.4,44.1,29.92,North,360,0.0,0.0,79,0.00,,,0.00,0,Wunderground v.1.15,2013-09-25 07:12:00,
2013-09-25 03:19:00,50.1,43.8,29.91,North,360,0.0,0.0,79,0.00,,,0.00,0,Wunderground v.1.15,2013-09-25 07:19:00,
2013-09-25 03:29:00,49.8,43.9,29.91,North,360,0.0,0.0,80,0.00,,,0.00,0,Wunderground v.1.15,2013-09-25 07:29:00,
2013-09-25 03:41:00,49.5,43.9,29.91,North,360,0.0,0.0,81,0.00,,,0.00,0,Wunderground v.1.15,2013-09-25 07:41:00,
2013-09-25 03:48:00,49.4,43.8,29.91,North,360,0.0,0.0,81,0.00,,,0.00,0,Wunderground v.1.15,2013-09-25 07:48:00,
2013-09-25 04:00:00,49.1,43.8,29.91,North,360,0.0,0.0,82,0.00,,,0.00,0,Wunderground v.1.15,2013-09-25 08:00:00,
2013-09-25 04:09:00,48.9,43.6,29.91,North,360,0.0,0.0,82,0.00,,,0.00,0,Wunderground v.1.15,2013-09-25 08:09:00,
2013-09-25 04:19:00,48.5,43.6,29.91,North,360,0.0,0.0,83,0.00,,,0.00,0,Wunderground v.1.15,2013-09-25 08:19:00,
2013-09-25 04:28:00,48.2,43.6,29.91,North,360,0.0,0.0,84,0.00,,,0.00,0,Wunderground v.1.15,2013-09-25 08:28:00,
2013-09-25 04:36:00,47.9,43.6,29.91,North,360,0.0,0.0,85,0.00,,,0.00,0,Wunderground v.1.15,2013-09-25 08:36:00,
2013-09-25 04:47:00,47.7,43.7,29.90,North,360,0.0,2.0,86,0.00,,,0.00,0,Wunderground v.1.15,2013-09-25 08:47:00,
2013-09-25 04:56:00,47.7,43.7,29.90,North,360,0.0,0.0,86,0.00,,,0.00,0,Wunderground v.1.15,2013-09-25 08:56:00,
2013-09-25 05:06:00,47.6,43.6,29.91,North,360,0.0,0.0,86,0.00,,,0.00,0,Wunderground v.1.15,2013-09-25 09:06:00,
2013-09-25 05:16:00,47.4,43.7,29.91,North,360,0.0,0.0,87,0.00,,,0.00,0,Wunderground v.1.15,2013-09-25 09:16:00,
2013-09-25 05:27:00,47.3,43.6,29.91,North,360,0.0,0.0,87,0.00,,,0.00,0,Wunderground v.1.15,2013-09-25 09:27:00,
2013-09-25 05:35:00,47.1,43.4,29.91,North,360,0.0,0.0,87,0.00,,,0.00,0,Wunderground v.1.15,2013-09-25 09:35:00,
2013-09-25 05:45:00,47.0,43.3,29.92,North,360,0.0,0.0,87,0.00,,,0.00,0,Wunderground v.1.15,2013-09-25 09:45:00,
2013-09-25 05:59:00,46.5,42.8,29.92,North,360,0.0,0.0,87,0.00,,,0.00,0,Wunderground v.1.15,2013-09-25 09:59:00,
2013-09-25 06:08:00,46.4,43.0,29.92,North,360,0.0,0.0,88,0.00,,,0.00,0,Wunderground v.1.15,2013-09-25 10:08:00,
2013-09-25 06:17:00,46.1,42.7,29.92,North,360,0.0,0.0,88,0.00,,,0.00,0,Wunderground v.1.15,2013-09-25 10:17:00,
2013-09-25 06:23:00,46.1,43.0,29.92,North,360,0.0,0.0,89,0.00,,,0.00,0,Wunderground v.1.15,2013-09-25 10:23:00,
2013-09-25 06:28:00,46.1,43.0,29.92,North,360,0.0,0.0,89,0.00,,,0.00,0,Wunderground v.1.15,2013-09-25 10:28:00,
2013-09-25 06:36:00,46.0,42.9,29.92,North,360,0.0,0.0,89,0.00,,,0.00,0,Wunderground v.1.15,2013-09-25 10:36:00,
2013-09-25 06:42:00,45.8,43.0,29.92,North,360,0.0,0.0,90,0.00,,,0.00,0,Wunderground v.1.15,2013-09-25 10:42:00,
2013-09-25 06:48:00,45.7,42.9,29.92,North,360,0.0,0.0,90,0.00,,,0.00,0,Wunderground v.1.15,2013-09-25 10:48:00,
2013-09-25 06:54:00,45.5,42.7,29.92,North,360,0.0,0.0,90,0.00,,,0.00,7,Wunderground v.1.15,2013-09-25 10:54:00,
2013-09-25 07:01:00,45.5,42.7,29.92,North,360,0.0,0.0,90,0.00,,,0.00,11,Wunderground v.1.15,2013-09-25 11:01:00,
2013-09-25 07:07:00,45.4,42.9,29.92,North,360,0.0,0.0,91,0.00,,,0.00,21,Wunderground v.1.15,2013-09-25 11:07:00,
2013-09-25 07:15:00,45.4,42.9,29.93,North,360,0.0,0.0,91,0.00,,,0.00,47,Wunderground v.1.15,2013-09-25 11:15:00,
2013-09-25 07:21:00,45.4,43.2,29.93,North,360,0.0,0.0,92,0.00,,,0.00,21,Wunderground v.1.15,2013-09-25 11:21:00,
2013-09-25 07:27:00,45.8,43.6,29.93,North,360,0.0,0.0,92,0.00,,,0.00,26,Wunderground v.1.15,2013-09-25 11:27:00,
2013-09-25 07:35:00,46.1,44.2,29.93,North,360,0.0,0.0,93,0.00,,,0.00,21,Wunderground v.1.15,2013-09-25 11:35:00,
2013-09-25 07:41:00,46.5,44.6,29.93,North,360,0.0,0.0,93,0.00,,,0.00,25,Wunderground v.1.15,2013-09-25 11:41:00,
2013-09-25 07:47:00,47.1,45.5,29.93,North,360,0.0,0.0,94,0.00,,,0.00,90,Wunderground v.1.15,2013-09-25 11:47:00,
2013-09-25 07:55:00,48.0,46.4,29.93,North,360,0.0,0.0,94,0.00,,,0.00,142,Wunderground v.1.15,2013-09-25 11:55:00,
2013-09-25 08:01:00,48.8,47.2,29.93,North,360,0.0,0.0,94,0.00,,,0.00,155,Wunderground v.1.15,2013-09-25 12:01:00,
2013-09-25 08:07:00,49.4,47.5,29.93,North,360,0.0,0.0,93,0.00,,,0.00,167,Wunderground v.1.15,2013-09-25 12:07:00,
2013-09-25 08:15:00,50.2,48.0,29.93,North,360,0.0,0.0,92,0.00,,,0.00,186,Wunderground v.1.15,2013-09-25 12:15:00,
2013-09-25 08:21:00,50.7,48.2,29.93,North,360,0.0,0.0,91,0.00,,,0.00,209,Wunderground v.1.15,2013-09-25 12:21:00,
2013-09-25 08:27:00,51.3,48.2,29.93,North,360,0.0,0.0,89,0.00,,,0.00,37,Wunderground v.1.15,2013-09-25 12:27:00,
2013-09-25 08:29:00,51.6,48.2,29.93,North,360,0.0,2.0,88,0.00,,,0.00,54,Wunderground v.1.15,2013-09-25 12:29:00,
2013-09-25 08:35:00,52.3,47.9,29.93,North,360,0.0,0.0,85,0.00,,,0.00,148,Wunderground v.1.15,2013-09-25 12:35:00,
2013-09-25 08:41:00,53.1,47.7,29.93,North,360,0.0,0.0,82,0.00,,,0.00,251,Wunderground v.1.15,2013-09-25 12:41:00,
2013-09-25 08:47:00,53.6,46.9,29.93,North,360,1.0,3.0,78,0.00,,,0.00,285,Wunderground v.1.15,2013-09-25 12:47:00,
2013-09-25 08:55:00,54.8,46.7,29.93,North,360,1.0,2.0,74,0.00,,,0.00,288,Wunderground v.1.15,2013-09-25 12:55:00,
2013-09-25 09:00:00,55.4,46.2,29.93,North,360,0.0,0.0,71,0.00,,,0.00,311,Wunderground v.1.15,2013-09-25 13:00:00,
2013-09-25 09:07:00,56.0,45.2,29.93,North,360,0.0,2.0,67,0.00,,,0.00,330,Wunderground v.1.15,2013-09-25 13:07:00,
2013-09-25 09:14:00,56.7,43.8,29.93,North,360,1.0,1.0,62,0.00,,,0.00,359,Wunderground v.1.15,2013-09-25 13:14:00,
2013-09-25 09:20:00,57.5,43.7,29.93,North,360,1.0,2.0,60,0.00,,,0.00,374,Wunderground v.1.15,2013-09-25 13:20:00,
2013-09-25 09:26:00,58.0,43.7,29.93,North,360,1.0,3.0,59,0.00,,,0.00,388,Wunderground v.1.15,2013-09-25 13:26:00,
2013-09-25 09:32:00,58.4,43.7,29.93,North,360,1.0,1.0,58,0.00,,,0.00,401,Wunderground v.1.15,2013-09-25 13:32:00,
2013-09-25 09:38:00,59.0,44.2,29.93,North,360,2.0,2.0,58,0.00,,,0.00,418,Wunderground v.1.15,2013-09-25 13:38:00,
2013-09-25 09:46:00,59.9,44.2,29.93,North,360,1.0,2.0,56,0.00,,,0.00,441,Wunderground v.1.15,2013-09-25 13:46:00,
2013-09-25 09:52:00,60.7,44.4,29.93,North,360,1.0,1.0,55,0.00,,,0.00,445,Wunderground v.1.15,2013-09-25 13:52:00,
2013-09-25 09:58:00,61.0,44.2,29.93,North,360,1.0,3.0,54,0.00,,,0.00,429,Wunderground v.1.15,2013-09-25 13:58:00,
2013-09-25 10:05:00,61.8,44.0,29.93,North,360,1.0,1.0,52,0.00,,,0.00,471,Wunderground v.1.15,2013-09-25 14:05:00,
2013-09-25 10:11:00,62.3,44.4,29.93,North,360,1.0,1.0,52,0.00,,,0.00,489,Wunderground v.1.15,2013-09-25 14:11:00,
2013-09-25 10:17:00,62.7,44.3,29.93,North,360,1.0,5.0,51,0.00,,,0.00,510,Wunderground v.1.15,2013-09-25 14:17:00,
2013-09-25 10:24:00,63.4,44.9,29.93,North,360,1.0,1.0,51,0.00,,,0.00,536,Wunderground v.1.15,2013-09-25 14:24:00,
2013-09-25 10:29:00,63.9,44.4,29.93,North,360,1.0,2.0,49,0.00,,,0.00,512,Wunderground v.1.15,2013-09-25 14:29:00,
2013-09-25 10:35:00,64.5,44.4,29.93,North,360,1.0,1.0,48,0.00,,,0.00,520,Wunderground v.1.15,2013-09-25 14:35:00,
2013-09-25 10:41:00,65.0,44.3,29.93,North,360,1.0,1.0,47,0.00,,,0.00,424,Wunderground v.1.15,2013-09-25 14:41:00,
2013-09-25 10:47:00,65.2,43.9,29.93,North,360,1.0,3.0,46,0.00,,,0.00,455,Wunderground v.1.15,2013-09-25 14:47:00,
2013-09-25 10:54:00,65.5,45.3,29.93,North,360,1.0,2.0,48,0.00,,,0.00,462,Wunderground v.1.15,2013-09-25 14:54:00,
2013-09-25 11:01:00,66.0,45.2,29.93,North,360,0.0,2.0,47,0.00,,,0.00,529,Wunderground v.1.15,2013-09-25 15:01:00,
2013-09-25 11:07:00,66.3,43.7,29.93,North,360,1.0,2.0,44,0.00,,,0.00,536,Wunderground v.1.15,2013-09-25 15:07:00,
2013-09-25 11:14:00,67.1,45.0,29.93,North,360,0.0,1.0,45,0.00,,,0.00,612,Wunderground v.1.15,2013-09-25 15:14:00,
2013-09-25 11:21:00,67.9,43.3,29.92,North,360,0.0,3.0,41,0.00,,,0.00,541,Wunderground v.1.15,2013-09-25 15:21:00,
2013-09-25 11:27:00,68.1,41.5,29.92,North,360,1.0,3.0,38,0.00,,,0.00,606,Wunderground v.1.15,2013-09-25 15:27:00,
2013-09-25 11:35:00,68.1,41.5,29.91,NNE,15,1.0,4.0,38,0.00,,,0.00,619,Wunderground v.1.15,2013-09-25 15:35:00,
2013-09-25 11:41:00,68.8,42.8,29.91,North,360,1.0,1.0,39,0.00,,,0.00,643,Wunderground v.1.15,2013-09-25 15:41:00,
2013-09-25 11:47:00,69.4,39.8,29.91,North,360,0.0,1.0,34,0.00,,,0.00,603,Wunderground v.1.15,2013-09-25 15:47:00,
2013-09-25 11:55:00,69.8,41.6,29.91,North,360,1.0,4.0,36,0.00,,,0.00,671,Wunderground v.1.15,2013-09-25 15:55:00,
2013-09-25 12:01:00,69.8,40.9,29.91,North,360,2.0,2.0,35,0.00,,,0.00,599,Wunderground v.1.15,2013-09-25 16:01:00,
2013-09-25 12:06:00,70.3,39.8,29.91,North,360,1.0,2.0,33,0.00,,,0.00,640,Wunderground v.1.15,2013-09-25 16:06:00,
2013-09-25 12:13:00,70.3,40.6,29.91,North,360,1.0,1.0,34,0.00,,,0.00,661,Wunderground v.1.15,2013-09-25 16:13:00,
2013-09-25 12:18:00,70.8,40.3,29.91,North,360,0.0,2.0,33,0.00,,,0.00,466,Wunderground v.1.15,2013-09-25 16:18:00,
2013-09-25 12:24:00,70.8,37.8,29.91,North,360,1.0,2.0,30,0.00,,,0.00,517,Wunderground v.1.15,2013-09-25 16:24:00,
2013-09-25 12:30:00,70.8,38.7,29.91,North,360,1.0,3.0,31,0.00,,,0.00,538,Wunderground v.1.15,2013-09-25 16:30:00,
2013-09-25 12:36:00,70.9,37.9,29.90,North,360,1.0,3.0,30,0.00,,,0.00,656,Wunderground v.1.15,2013-09-25 16:36:00,
2013-09-25 12:42:00,71.5,38.4,29.90,North,360,0.0,0.0,30,0.00,,,0.00,728,Wunderground v.1.15,2013-09-25 16:42:00,
2013-09-25 12:48:00,71.6,40.2,29.90,North,360,0.0,1.0,32,0.00,,,0.00,598,Wunderground v.1.15,2013-09-25 16:48:00,
2013-09-25 12:55:00,72.0,38.9,29.90,North,360,1.0,1.0,30,0.00,,,0.00,777,Wunderground v.1.15,2013-09-25 16:55:00,
2013-09-25 13:02:00,72.8,40.4,29.90,North,360,1.0,1.0,31,0.00,,,0.00,802,Wunderground v.1.15,2013-09-25 17:02:00,
2013-09-25 13:07:00,72.5,38.4,29.90,North,360,1.0,5.0,29,0.00,,,0.00,756,Wunderground v.1.15,2013-09-25 17:07:00,
2013-09-25 13:15:00,71.3,37.4,29.89,North,360,1.0,3.0,29,0.00,,,0.00,729,Wunderground v.1.15,2013-09-25 17:15:00,
2013-09-25 13:21:00,71.1,38.1,29.89,North,360,1.0,1.0,30,0.00,,,0.00,754,Wunderground v.1.15,2013-09-25 17:21:00,
2013-09-25 13:27:00,70.8,39.5,29.89,North,360,0.0,1.0,32,0.00,,,0.00,638,Wunderground v.1.15,2013-09-25 17:27:00,
2013-09-25 13:35:00,71.1,42.0,29.88,North,360,1.0,2.0,35,0.00,,,0.00,624,Wunderground v.1.15,2013-09-25 17:35:00,
2013-09-25 13:41:00,72.1,42.9,29.88,North,360,1.0,3.0,35,0.00,,,0.00,650,Wunderground v.1.15,2013-09-25 17:41:00,
2013-09-25 13:47:00,72.0,41.3,29.88,North,360,1.0,3.0,33,0.00,,,0.00,561,Wunderground v.1.15,2013-09-25 17:47:00,
2013-09-25 13:55:00,71.5,40.1,29.88,North,360,2.0,4.0,32,0.00,,,0.00,538,Wunderground v.1.15,2013-09-25 17:55:00,
2013-09-25 14:01:00,71.3,40.7,29.88,North,360,2.0,5.0,33,0.00,,,0.00,536,Wunderground v.1.15,2013-09-25 18:01:00,
2013-09-25 14:07:00,72.0,40.5,29.88,North,360,3.0,5.0,32,0.00,,,0.00,341,Wunderground v.1.15,2013-09-25 18:07:00,
2013-09-25 14:15:00,71.8,41.9,29.88,North,360,2.0,3.0,34,0.00,,,0.00,513,Wunderground v.1.15,2013-09-25 18:15:00,
2013-09-25 14:21:00,71.1,40.5,29.87,North,360,1.0,1.0,33,0.00,,,0.00,253,Wunderground v.1.15,2013-09-25 18:21:00,
2013-09-25 14:27:00,70.9,41.9,29.87,North,360,0.0,1.0,35,0.00,,,0.00,283,Wunderground v.1.15,2013-09-25 18:27:00,
2013-09-25 14:34:00,71.1,42.8,29.87,North,360,0.0,0.0,36,0.00,,,0.00,578,Wunderground v.1.15,2013-09-25 18:34:00,
2013-09-25 14:41:00,71.8,42.7,29.87,North,360,0.0,0.0,35,0.00,,,0.00,733,Wunderground v.1.15,2013-09-25 18:41:00,
2013-09-25 14:47:00,72.7,41.9,29.87,North,360,1.0,1.0,33,0.00,,,0.00,707,Wunderground v.1.15,2013-09-25 18:47:00,
2013-09-25 14:55:00,73.2,41.6,29.87,North,360,1.0,4.0,32,0.00,,,0.00,645,Wunderground v.1.15,2013-09-25 18:55:00,
2013-09-25 15:01:00,72.7,42.7,29.86,North,360,1.0,1.0,34,0.00,,,0.00,570,Wunderground v.1.15,2013-09-25 19:01:00,
2013-09-25 15:07:00,72.3,42.3,29.86,North,360,1.0,4.0,34,0.00,,,0.00,251,Wunderground v.1.15,2013-09-25 19:07:00,
2013-09-25 15:14:00,73.0,42.2,29.86,North,360,2.0,4.0,33,0.00,,,0.00,540,Wunderground v.1.15,2013-09-25 19:14:00,
2013-09-25 15:22:00,73.2,42.4,29.86,North,360,1.0,1.0,33,0.00,,,0.00,575,Wunderground v.1.15,2013-09-25 19:22:00,
2013-09-25 15:28:00,73.5,41.0,29.86,North,360,3.0,5.0,31,0.00,,,0.00,325,Wunderground v.1.15,2013-09-25 19:28:00,
2013-09-25 15:36:00,72.8,42.0,29.86,North,360,2.0,3.0,33,0.00,,,0.00,422,Wunderground v.1.15,2013-09-25 19:36:00,
2013-09-25 15:42:00,73.2,43.9,29.86,North,360,0.0,0.0,35,0.00,,,0.00,420,Wunderground v.1.15,2013-09-25 19:42:00,
2013-09-25 15:48:00,73.2,42.4,29.85,North,360,1.0,2.0,33,0.00,,,0.00,339,Wunderground v.1.15,2013-09-25 19:48:00,
2013-09-25 15:55:00,72.7,43.5,29.85,North,360,2.0,3.0,35,0.00,,,0.00,376,Wunderground v.1.15,2013-09-25 19:55:00,
2013-09-25 16:01:00,72.3,43.1,29.85,North,360,1.0,2.0,35,0.00,,,0.00,473,Wunderground v.1.15,2013-09-25 20:01:00,
2013-09-25 16:07:00,72.8,43.5,29.85,North,360,2.0,3.0,35,0.00,,,0.00,334,Wunderground v.1.15,2013-09-25 20:07:00,
2013-09-25 16:15:00,72.8,43.5,29.85,North,360,3.0,6.0,35,0.00,,,0.00,149,Wunderground v.1.15,2013-09-25 20:15:00,
2013-09-25 16:21:00,72.7,43.5,29.85,North,360,3.0,3.0,35,0.00,,,0.00,130,Wunderground v.1.15,2013-09-25 20:21:00,
2013-09-25 16:27:00,72.7,42.7,29.85,North,360,3.0,3.0,34,0.00,,,0.00,135,Wunderground v.1.15,2013-09-25 20:27:00,
2013-09-25 16:35:00,72.1,44.4,29.85,North,360,2.0,3.0,37,0.00,,,0.00,114,Wunderground v.1.15,2013-09-25 20:35:00,
2013-09-25 16:41:00,72.1,42.9,29.85,North,360,2.0,4.0,35,0.00,,,0.00,88,Wunderground v.1.15,2013-09-25 20:41:00,
2013-09-25 16:47:00,72.0,43.6,29.85,North,360,2.0,6.0,36,0.00,,,0.00,69,Wunderground v.1.15,2013-09-25 20:47:00,
2013-09-25 16:55:00,71.6,44.6,29.85,North,360,4.0,5.0,38,0.00,,,0.00,58,Wunderground v.1.15,2013-09-25 20:55:00,
2013-09-25 17:01:00,71.3,44.4,29.85,North,360,2.0,2.0,38,0.00,,,0.00,58,Wunderground v.1.15,2013-09-25 21:01:00,
2013-09-25 17:07:00,70.9,44.7,29.85,North,360,2.0,3.0,39,0.00,,,0.00,69,Wunderground v.1.15,2013-09-25 21:07:00,
2013-09-25 17:15:00,70.6,44.4,29.85,North,360,2.0,3.0,39,0.00,,,0.00,58,Wunderground v.1.15,2013-09-25 21:15:00,
2013-09-25 17:21:00,70.4,44.9,29.85,North,360,2.0,2.0,40,0.00,,,0.00,62,Wunderground v.1.15,2013-09-25 21:21:00,
2013-09-25 17:27:00,70.4,45.6,29.85,North,360,2.0,2.0,41,0.00,,,0.00,60,Wunderground v.1.15,2013-09-25 21:27:00,
2013-09-25 17:35:00,70.3,45.5,29.86,North,360,2.0,4.0,41,0.00,,,0.00,62,Wunderground v.1.15,2013-09-25 21:35:00,
2013-09-25 17:41:00,70.3,45.5,29.86,North,360,2.0,3.0,41,0.00,,,0.00,58,Wunderground v.1.15,2013-09-25 21:41:00,
2013-09-25 17:47:00,70.3,45.5,29.86,North,360,1.0,3.0,41,0.00,,,0.00,56,Wunderground v.1.15,2013-09-25 21:47:00,
2013-09-25 17:54:00,70.3,45.5,29.86,North,360,1.0,2.0,41,0.00,,,0.00,51,Wunderground v.1.15,2013-09-25 21:54:00,
2013-09-25 18:01:00,70.3,45.5,29.86,North,360,1.0,3.0,41,0.00,,,0.00,100,Wunderground v.1.15,2013-09-25 22:01:00,
2013-09-25 18:10:00,70.1,44.6,29.86,North,360,2.0,2.0,40,0.00,,,0.00,42,Wunderground v.1.15,2013-09-25 22:10:00,
2013-09-25 18:16:00,70.1,45.9,29.86,North,360,2.0,2.0,42,0.00,,,0.00,62,Wunderground v.1.15,2013-09-25 22:16:00,
2013-09-25 18:22:00,69.9,46.4,29.86,North,360,1.0,1.0,43,0.00,,,0.00,60,Wunderground v.1.15,2013-09-25 22:22:00,
2013-09-25 18:28:00,69.6,47.3,29.86,North,360,1.0,1.0,45,0.00,,,0.00,28,Wunderground v.1.15,2013-09-25 22:28:00,
2013-09-25 18:36:00,69.6,47.3,29.86,North,360,0.0,0.0,45,0.00,,,0.00,16,Wunderground v.1.15,2013-09-25 22:36:00,
2013-09-25 18:42:00,69.6,47.9,29.86,North,360,0.0,0.0,46,0.00,,,0.00,11,Wunderground v.1.15,2013-09-25 22:42:00,
2013-09-25 18:48:00,69.3,48.2,29.86,North,360,0.0,0.0,47,0.00,,,0.00,0,Wunderground v.1.15,2013-09-25 22:48:00,
2013-09-25 18:54:00,68.9,48.9,29.86,North,360,0.0,0.0,49,0.00,,,0.00,0,Wunderground v.1.15,2013-09-25 22:54:00,
2013-09-25 18:59:00,68.6,49.2,29.86,North,360,0.0,0.0,50,0.00,,,0.00,0,Wunderground v.1.15,2013-09-25 22:59:00,
2013-09-25 19:05:00,68.3,49.5,29.86,North,360,0.0,0.0,51,0.00,,,0.00,0,Wunderground v.1.15,2013-09-25 23:05:00,
2013-09-25 19:11:00,67.9,49.1,29.86,North,360,0.0,0.0,51,0.00,,,0.00,0,Wunderground v.1.15,2013-09-25 23:11:00,
2013-09-25 19:17:00,67.4,48.6,29.87,North,360,0.0,0.0,51,0.00,,,0.00,0,Wunderground v.1.15,2013-09-25 23:17:00,
2013-09-25 19:24:00,66.9,48.7,29.87,North,360,0.0,0.0,52,0.00,,,0.00,0,Wunderground v.1.15,2013-09-25 23:24:00,
2013-09-25 19:31:00,66.4,48.2,29.87,North,360,0.0,0.0,52,0.00,,,0.00,0,Wunderground v.1.15,2013-09-25 23:31:00,
2013-09-25 19:37:00,66.1,48.5,29.87,North,360,0.0,0.0,53,0.00,,,0.00,0,Wunderground v.1.15,2013-09-25 23:37:00,
2013-09-25 19:45:00,65.6,49.0,29.87,North,360,0.0,0.0,55,0.00,,,0.00,0,Wunderground v.1.15,2013-09-25 23:45:00,
2013-09-25 19:51:00,65.3,49.2,29.87,North,360,0.0,0.0,56,0.00,,,0.00,0,Wunderground v.1.15,2013-09-25 23:51:00,
2013-09-25 19:57:00,65.0,49.9,29.87,North,360,0.0,0.0,58,0.00,,,0.00,0,Wunderground v.1.15,2013-09-25 23:57:00,
2013-09-25 20:05:00,64.3,50.1,29.88,North,360,0.0,0.0,60,0.00,,,0.00,0,Wunderground v.1.15,2013-09-26 00:05:00,
2013-09-25 20:11:00,63.9,50.6,29.88,North,360,0.0,0.0,62,0.00,,,0.00,0,Wunderground v.1.15,2013-09-26 00:11:00,
2013-09-25 20:17:00,63.5,50.7,29.88,North,360,0.0,0.0,63,0.00,,,0.00,0,Wunderground v.1.15,2013-09-26 00:17:00,
2013-09-25 20:25:00,63.1,50.7,29.88,North,360,0.0,0.0,64,0.00,,,0.00,0,Wunderground v.1.15,2013-09-26 00:25:00,
2013-09-25 20:31:00,62.9,51.4,29.88,North,360,0.0,0.0,66,0.00,,,0.00,0,Wunderground v.1.15,2013-09-26 00:31:00,
2013-09-25 20:37:00,62.6,51.9,29.88,North,360,0.0,0.0,68,0.00,,,0.00,0,Wunderground v.1.15,2013-09-26 00:37:00,
2013-09-25 20:45:00,62.1,52.6,29.88,North,360,0.0,0.0,71,0.00,,,0.00,0,Wunderground v.1.15,2013-09-26 00:45:00,
2013-09-25 20:51:00,61.8,53.1,29.89,North,360,1.0,1.0,73,0.00,,,0.00,0,Wunderground v.1.15,2013-09-26 00:51:00,
2013-09-25 20:56:00,61.5,53.1,29.89,North,360,1.0,1.0,74,0.00,,,0.00,0,Wunderground v.1.15,2013-09-26 00:56:00,
2013-09-25 21:04:00,61.2,53.2,29.89,North,360,0.0,0.0,75,0.00,,,0.00,0,Wunderground v.1.15,2013-09-26 01:04:00,
2013-09-25 21:10:00,60.7,53.1,29.89,North,360,0.0,0.0,76,0.00,,,0.00,0,Wunderground v.1.15,2013-09-26 01:10:00,
2013-09-25 21:16:00,60.5,53.3,29.90,North,360,0.0,0.0,77,0.00,,,0.00,0,Wunderground v.1.15,2013-09-26 01:16:00,
2013-09-25 21:22:00,60.2,53.3,29.90,North,360,0.0,0.0,78,0.00,,,0.00,0,Wunderground v.1.15,2013-09-26 01:22:00,
2013-09-25 21:28:00,59.9,53.4,29.90,North,360,0.0,0.0,79,0.00,,,0.00,0,Wunderground v.1.15,2013-09-26 01:28:00,
2013-09-25 21:36:00,59.5,53.0,29.90,North,360,0.0,0.0,79,0.00,,,0.00,0,Wunderground v.1.15,2013-09-26 01:36:00,
2013-09-25 21:42:00,59.3,52.8,29.90,North,360,0.0,0.0,79,0.00,,,0.00,0,Wunderground v.1.15,2013-09-26 01:42:00,
2013-09-25 21:48:00,59.0,52.8,29.90,North,360,0.0,0.0,80,0.00,,,0.00,0,Wunderground v.1.15,2013-09-26 01:48:00,
2013-09-25 21:55:00,58.7,53.2,29.90,North,360,0.0,0.0,82,0.00,,,0.00,0,Wunderground v.1.15,2013-09-26 01:55:00,
2013-09-25 22:01:00,58.4,52.9,29.90,North,360,0.0,0.0,82,0.00,,,0.00,0,Wunderground v.1.15,2013-09-26 02:01:00,
2013-09-25 22:07:00,58.1,53.0,29.90,North,360,0.0,0.0,83,0.00,,,0.00,0,Wunderground v.1.15,2013-09-26 02:07:00,
2013-09-25 22:14:00,58.0,52.9,29.90,North,360,0.0,0.0,83,0.00,,,0.00,0,Wunderground v.1.15,2013-09-26 02:14:00,
2013-09-25 22:21:00,57.8,52.7,29.90,North,360,0.0,0.0,83,0.00,,,0.00,0,Wunderground v.1.15,2013-09-26 02:21:00,
2013-09-25 22:27:00,57.6,52.8,29.90,North,360,0.0,0.0,84,0.00,,,0.00,0,Wunderground v.1.15,2013-09-26 02:27:00,
2013-09-25 22:34:00,57.3,52.5,29.90,North,360,0.0,0.0,84,0.00,,,0.00,0,Wunderground v.1.15,2013-09-26 02:34:00,
2013-09-25 22:39:00,57.2,52.7,29.90,North,360,0.0,0.0,85,0.00,,,0.00,0,Wunderground v.1.15,2013-09-26 02:39:00,
2013-09-25 22:45:00,57.0,52.5,29.90,North,360,0.0,0.0,85,0.00,,,0.00,0,Wunderground v.1.15,2013-09-26 02:45:00,
2013-09-25 22:51:00,56.9,52.4,29.90,North,360,0.0,0.0,85,0.00,,,0.00,0,Wunderground v.1.15,2013-09-26 02:51:00,
2013-09-25 22:57:00,56.6,52.5,29.90,North,360,0.0,1.0,86,0.00,,,0.00,0,Wunderground v.1.15,2013-09-26 02:57:00,
2013-09-25 23:05:00,56.5,52.4,29.91,North,360,1.0,1.0,86,0.00,,,0.00,0,Wunderground v.1.15,2013-09-26 03:05:00,
2013-09-25 23:11:00,56.3,52.5,29.91,North,360,0.0,1.0,87,0.00,,,0.00,0,Wunderground v.1.15,2013-09-26 03:11:00,
2013-09-25 23:17:00,56.0,52.2,29.91,North,360,1.0,2.0,87,0.00,,,0.00,0,Wunderground v.1.15,2013-09-26 03:17:00,
2013-09-25 23:25:00,55.7,52.2,29.91,North,360,1.0,1.0,88,0.00,,,0.00,0,Wunderground v.1.15,2013-09-26 03:25:00,
2013-09-25 23:31:00,55.6,52.1,29.91,North,360,0.0,2.0,88,0.00,,,0.00,0,Wunderground v.1.15,2013-09-26 03:31:00,
2013-09-25 23:37:00,55.4,51.9,29.91,North,360,0.0,2.0,88,0.00,,,0.00,0,Wunderground v.1.15,2013-09-26 03:37:00,
2013-09-25 23:45:00,55.1,51.6,29.91,North,360,0.0,0.0,88,0.00,,,0.00,0,Wunderground v.1.15,2013-09-26 03:45:00,
2013-09-25 23:51:00,55.0,51.5,29.91,North,360,0.0,0.0,88,0.00,,,0.00,0,Wunderground v.1.15,2013-09-26 03:51:00,
2013-09-25 23:57:00,54.8,51.6,29.91,North,360,0.0,0.0,89,0.00,,,0.00,0,Wunderground v.1.15,2013-09-26 03:57:00,